Time;durP1;ratioP1;P1;durP2;ratioP2;P2;SDS_P1;SDS_P2;PMS_P1;PMS_P2;Temp;Humidity;BMP_temperature;BMP_pressure;BME280_temperature;BME280_humidity;BME280_pressure;Samples;Min_cycle;Max_cycle;Signal;HPM_P1;HPM_P2
2022/04/11 00:01:43;;;;;;;5.30;1.97;;;;;;;3.05;100.00;101131.72;4955715;28;20054;-81
2022/04/11 00:04:16;;;;;;;3.93;1.60;;;;;;;3.07;100.00;101127.41;4967944;28;20635;-80
2022/04/11 00:06:42;;;;;;;6.50;2.10;;;;;;;3.02;100.00;101136.84;4966909;28;20059;-81
2022/04/11 00:09:09;;;;;;;3.00;1.60;;;;;;;3.03;100.00;101137.78;4964970;28;20137;-81
2022/04/11 00:11:38;;;;;;;4.90;1.83;;;;;;;3.18;100.00;101131.91;4958453;28;20069;-81
2022/04/11 00:14:07;;;;;;;4.33;2.17;;;;;;;3.08;100.00;101123.06;4973861;28;20047;-81
2022/04/11 00:16:34;;;;;;;2.90;1.60;;;;;;;3.12;100.00;101127.50;4960603;28;20439;-80
2022/04/11 00:19:01;;;;;;;3.57;1.43;;;;;;;3.10;100.00;101132.66;4959209;28;20129;-81
2022/04/11 00:21:29;;;;;;;2.40;1.53;;;;;;;3.08;100.00;101131.75;4959275;28;20504;-80
2022/04/11 00:23:56;;;;;;;4.20;1.40;;;;;;;3.09;100.00;101130.03;4961420;28;20043;-81
2022/04/11 00:26:23;;;;;;;2.37;1.30;;;;;;;3.07;100.00;101126.50;4975796;28;20039;-81
2022/04/11 00:28:50;;;;;;;3.33;1.87;;;;;;;3.03;100.00;101127.34;4973031;28;20038;-81
2022/04/11 00:31:18;;;;;;;3.67;1.33;;;;;;;3.04;100.00;101136.91;4957127;28;20039;-81
2022/04/11 00:33:47;;;;;;;3.13;1.43;;;;;;;2.97;100.00;101138.53;4952696;28;20622;-81
2022/04/11 00:36:16;;;;;;;3.10;1.20;;;;;;;2.95;100.00;101137.63;4970585;28;20058;-81
2022/04/11 00:38:43;;;;;;;2.00;1.03;;;;;;;2.96;100.00;101142.00;4956444;28;20503;-81
2022/04/11 00:41:10;;;;;;;2.77;1.40;;;;;;;2.98;100.00;101140.28;4944806;28;20130;-80
2022/04/11 00:43:39;;;;;;;4.57;1.33;;;;;;;2.96;100.00;101130.69;4951952;28;20057;-81
2022/04/11 00:46:09;;;;;;;3.77;1.87;;;;;;;2.98;100.00;101134.19;4961204;28;20049;-81
2022/04/11 00:48:37;;;;;;;8.20;1.87;;;;;;;3.01;100.00;101132.50;4943481;28;20128;-81
2022/04/11 00:51:16;;;;;;;6.03;1.63;;;;;;;3.07;100.00;101139.56;4977577;28;20031;-81
2022/04/11 00:53:45;;;;;;;4.13;1.57;;;;;;;3.03;100.00;101140.38;4967944;28;20124;-81
2022/04/11 00:56:16;;;;;;;5.43;2.13;;;;;;;3.03;100.00;101132.56;4927274;28;20042;-80
2022/04/11 00:58:43;;;;;;;3.47;1.40;;;;;;;3.08;100.00;101136.97;4938673;28;20613;-80
2022/04/11 01:01:10;;;;;;;2.50;1.43;;;;;;;3.00;100.00;101143.78;4979603;28;20045;-81
2022/04/11 01:03:37;;;;;;;3.07;1.40;;;;;;;2.99;100.00;101134.22;4945302;28;20081;-80
2022/04/11 01:06:03;;;;;;;3.20;1.60;;;;;;;3.00;100.00;101135.97;4945573;28;21043;-81
2022/04/11 01:08:30;;;;;;;4.70;1.80;;;;;;;3.06;100.00;101136.09;4971440;28;20049;-81
2022/04/11 01:10:57;;;;;;;5.33;1.80;;;;;;;3.18;100.00;101137.13;4966418;28;20035;-81
2022/04/11 01:13:24;;;;;;;5.30;2.10;;;;;;;3.21;100.00;101143.31;4965244;28;20057;-81
2022/04/11 01:16:02;;;;;;;7.03;2.50;;;;;;;3.15;100.00;101137.09;4964822;28;20137;-81
2022/04/11 01:18:33;;;;;;;5.93;1.77;;;;;;;3.12;100.00;101137.06;4938678;28;20078;-81
2022/04/11 01:21:00;;;;;;;4.20;2.07;;;;;;;3.13;100.00;101142.28;4953510;28;20073;-81
2022/04/11 01:23:27;;;;;;;3.37;2.23;;;;;;;3.09;100.00;101140.47;4959294;28;20054;-81
2022/04/11 01:25:54;;;;;;;3.60;2.23;;;;;;;3.02;100.00;101142.09;4967123;28;20050;-80
2022/04/11 01:28:21;;;;;;;4.43;2.03;;;;;;;3.06;100.00;101148.25;4948490;28;20053;-80
2022/04/11 01:30:53;;;;;;;2.53;1.50;;;;;;;3.04;100.00;101137.78;4981759;28;20031;-81
2022/04/11 01:33:25;;;;;;;3.17;2.10;;;;;;;3.04;100.00;101131.69;4968476;28;20043;-81
2022/04/11 01:35:52;;;;;;;5.53;1.93;;;;;;;3.05;100.00;101141.28;4926417;28;20036;-80
2022/04/11 01:38:19;;;;;;;4.03;1.80;;;;;;;2.99;100.00;101144.66;4925719;28;20595;-81
2022/04/11 01:40:53;;;;;;;5.17;1.97;;;;;;;3.04;100.00;101139.53;4944185;28;20047;-81
2022/04/11 01:43:21;;;;;;;5.90;2.10;;;;;;;3.00;100.00;101135.97;4972383;28;20137;-81
2022/04/11 01:45:48;;;;;;;5.40;1.93;;;;;;;3.03;100.00;101141.25;4962157;28;20077;-81
2022/04/11 01:48:15;;;;;;;3.30;1.83;;;;;;;3.05;100.00;101141.28;4979351;28;20642;-81
2022/04/11 01:50:43;;;;;;;5.63;2.37;;;;;;;3.08;100.00;101142.19;4945731;28;20050;-80
2022/04/11 01:53:11;;;;;;;6.57;2.10;;;;;;;3.03;100.00;101145.59;4964648;28;20042;-79
2022/04/11 01:55:38;;;;;;;5.43;2.23;;;;;;;3.00;100.00;101153.34;4950935;28;20410;-80
2022/04/11 01:58:07;;;;;;;5.47;2.17;;;;;;;3.03;100.00;101148.22;4971214;28;20554;-80
2022/04/11 02:00:34;;;;;;;6.90;2.43;;;;;;;3.05;100.00;101146.50;4969692;28;20049;-80
2022/04/11 02:03:02;;;;;;;7.27;1.97;;;;;;;3.05;100.00;101160.44;4969931;28;20046;-81
2022/04/11 02:05:29;;;;;;;8.90;2.70;;;;;;;3.04;100.00;101150.84;4968124;28;20042;-80
2022/04/11 02:07:56;;;;;;;3.53;2.30;;;;;;;3.00;100.00;101153.34;4966167;28;20061;-81
2022/04/11 02:10:23;;;;;;;5.30;1.90;;;;;;;3.05;100.00;101162.16;4972315;28;20112;-80
2022/04/11 02:12:53;;;;;;;4.00;1.97;;;;;;;3.08;100.00;101151.75;4953710;28;20423;-81
2022/04/11 02:15:20;;;;;;;6.03;2.57;;;;;;;3.16;100.00;101147.56;4948758;28;20077;-79
2022/04/11 02:17:47;;;;;;;4.33;1.70;;;;;;;3.13;100.00;101150.13;4946440;28;20494;-79
2022/04/11 02:20:14;;;;;;;3.37;1.67;;;;;;;3.17;100.00;101162.38;4959517;28;20049;-79
2022/04/11 02:22:55;;;;;;;5.03;2.10;;;;;;;3.14;100.00;101146.66;4943562;28;20038;-79
2022/04/11 02:25:24;;;;;;;10.77;2.27;;;;;;;3.14;100.00;101151.00;4941322;28;20059;-79
2022/04/11 02:27:54;;;;;;;6.13;2.30;;;;;;;3.17;100.00;101151.03;4968318;28;20047;-80
2022/04/11 02:30:22;;;;;;;2.47;2.07;;;;;;;2.98;100.00;101160.28;4963548;28;20046;-79
2022/04/11 02:32:50;;;;;;;5.20;1.87;;;;;;;2.90;100.00;101160.13;4937088;29;20054;-79
2022/04/11 02:35:17;;;;;;;4.37;2.30;;;;;;;2.85;100.00;101156.56;4956716;28;20040;-79
2022/04/11 02:37:44;;;;;;;5.87;2.13;;;;;;;2.84;100.00;101154.81;4950655;28;20053;-79
2022/04/11 02:40:12;;;;;;;7.03;2.87;;;;;;;2.78;100.00;101147.75;4980330;28;20126;-79
2022/04/11 02:42:44;;;;;;;4.50;1.83;;;;;;;2.73;100.00;101151.13;4977089;28;20070;-79
2022/04/11 02:45:11;;;;;;;5.53;2.50;;;;;;;2.74;100.00;101148.53;4955158;28;20106;-79
2022/04/11 02:47:39;;;;;;;6.13;2.40;;;;;;;2.72;100.00;101150.25;4945606;28;20101;-79
2022/04/11 02:50:06;;;;;;;4.20;1.90;;;;;;;2.74;100.00;101161.56;4949356;28;20070;-79
2022/04/11 02:52:32;;;;;;;4.60;2.67;;;;;;;2.67;100.00;101159.69;4955314;28;20625;-79
2022/04/11 02:55:00;;;;;;;6.23;1.80;;;;;;;2.67;100.00;101149.25;4985406;28;20381;-79
2022/04/11 02:57:26;;;;;;;5.13;2.07;;;;;;;2.66;100.00;101152.72;4970762;28;20050;-79
2022/04/11 02:59:53;;;;;;;5.50;2.10;;;;;;;2.61;100.00;101151.78;4956435;28;20043;-79
2022/04/11 03:02:20;;;;;;;6.43;2.83;;;;;;;2.46;100.00;101144.50;4966517;28;20050;-79
2022/04/11 03:04:47;;;;;;;3.90;1.83;;;;;;;2.38;100.00;101159.13;4979238;28;20034;-79
2022/04/11 03:07:13;;;;;;;6.70;1.90;;;;;;;2.24;100.00;101151.00;4942779;28;20054;-79
2022/04/11 03:09:40;;;;;;;4.53;1.90;;;;;;;2.23;100.00;101151.84;4979273;28;20053;-79
2022/04/11 03:12:07;;;;;;;3.03;2.13;;;;;;;2.12;100.00;101158.56;4939218;28;20058;-79
2022/04/11 03:14:34;;;;;;;4.20;2.00;;;;;;;2.12;100.00;101157.69;4957689;28;20045;-79
2022/04/11 03:17:01;;;;;;;5.37;2.17;;;;;;;2.06;100.00;101163.66;4973362;28;20039;-79
2022/04/11 03:19:28;;;;;;;4.80;1.90;;;;;;;2.02;100.00;101168.75;4938885;28;20075;-79
2022/04/11 03:21:55;;;;;;;4.33;2.30;;;;;;;1.88;100.00;101174.53;4965507;28;20047;-79
2022/04/11 03:24:21;;;;;;;7.07;1.87;;;;;;;1.79;100.00;101170.84;4940175;28;20042;-79
2022/04/11 03:26:48;;;;;;;3.93;2.20;;;;;;;1.69;100.00;101164.53;4958696;28;20042;-80
2022/04/11 03:29:15;;;;;;;4.33;1.70;;;;;;;1.60;100.00;101169.53;4950624;28;20397;-79
2022/04/11 03:31:41;;;;;;;2.27;1.50;;;;;;;1.54;100.00;101162.44;4961827;28;20041;-79
2022/04/11 03:34:08;;;;;;;4.00;1.93;;;;;;;1.48;100.00;101162.28;4992668;28;20039;-79
2022/04/11 03:36:35;;;;;;;5.17;2.10;;;;;;;1.45;100.00;101167.44;4943303;28;20539;-79
2022/04/11 03:39:01;;;;;;;2.80;1.80;;;;;;;1.42;100.00;101165.63;4970714;28;20035;-79
2022/04/11 03:41:29;;;;;;;3.83;2.60;;;;;;;1.35;100.00;101171.53;4968239;28;20035;-80
2022/04/11 03:43:58;;;;;;;4.57;2.90;;;;;;;1.29;100.00;101167.91;5007325;28;20046;-80
2022/04/11 03:46:27;;;;;;;9.43;6.13;;;;;;;1.22;100.00;101171.19;4959885;28;20042;-80
2022/04/11 03:48:54;;;;;;;9.93;6.40;;;;;;;1.20;100.00;101171.16;4975453;28;20107;-80
2022/04/11 03:51:21;;;;;;;11.70;6.43;;;;;;;1.16;100.00;101171.88;4969525;28;20051;-79
2022/04/11 03:53:48;;;;;;;8.80;4.53;;;;;;;1.13;100.00;101171.81;4970884;28;20035;-79
2022/04/11 03:56:17;;;;;;;7.67;3.47;;;;;;;1.10;100.00;101167.44;4956435;28;20039;-79
2022/04/11 03:58:44;;;;;;;6.17;2.80;;;;;;;1.07;100.00;101174.25;4939675;28;20038;-79
2022/04/11 04:01:11;;;;;;;4.27;2.13;;;;;;;1.04;100.00;101182.00;4939844;28;20069;-78
2022/04/11 04:03:40;;;;;;;6.40;2.93;;;;;;;1.03;100.00;101175.91;4947265;28;22110;-79
2022/04/11 04:06:07;;;;;;;5.30;1.80;;;;;;;1.00;100.00;101181.00;4965442;28;20051;-79
2022/04/11 04:08:33;;;;;;;3.40;2.30;;;;;;;0.96;100.00;101179.19;4974091;28;20125;-79
2022/04/11 04:11:00;;;;;;;6.40;2.67;;;;;;;0.90;100.00;101180.72;4947013;28;20039;-79
2022/04/11 04:13:35;;;;;;;5.70;2.50;;;;;;;0.84;100.00;101177.16;4983573;28;20093;-79
2022/04/11 04:16:02;;;;;;;6.53;2.80;;;;;;;0.82;100.00;101177.94;4948837;28;20046;-79
2022/04/11 04:18:28;;;;;;;7.33;2.57;;;;;;;0.81;100.00;101177.03;4984234;28;20450;-79
2022/04/11 04:20:57;;;;;;;5.63;2.43;;;;;;;0.80;100.00;101169.22;4957618;28;20098;-79
2022/04/11 04:23:24;;;;;;;3.00;1.73;;;;;;;0.78;100.00;101169.16;4971653;28;20049;-79
2022/04/11 04:25:51;;;;;;;3.40;2.37;;;;;;;0.81;100.00;101176.16;4975733;28;20058;-79
2022/04/11 04:28:18;;;;;;;4.80;2.20;;;;;;;0.80;100.00;101179.59;4958081;28;20039;-79
2022/04/11 04:30:49;;;;;;;5.83;1.97;;;;;;;0.81;100.00;101165.75;4958020;28;20077;-79
2022/04/11 04:33:16;;;;;;;6.60;3.77;;;;;;;0.82;100.00;101172.72;4974850;28;20042;-79
2022/04/11 04:35:43;;;;;;;5.43;2.10;;;;;;;0.80;100.00;101171.81;4988411;28;20143;-79
2022/04/11 04:38:09;;;;;;;4.93;2.40;;;;;;;0.80;100.00;101180.50;4957279;28;20035;-80
2022/04/11 04:40:36;;;;;;;4.87;2.47;;;;;;;0.78;100.00;101170.91;4972345;28;20408;-79
2022/04/11 04:43:04;;;;;;;5.10;2.63;;;;;;;0.79;100.00;101170.94;4937272;28;20046;-79
2022/04/11 04:45:31;;;;;;;7.20;4.50;;;;;;;0.78;100.00;101178.69;4958213;28;20050;-79
2022/04/11 04:47:57;;;;;;;11.87;6.47;;;;;;;0.80;100.00;101177.88;4947353;28;20058;-79
2022/04/11 04:50:24;;;;;;;7.87;3.80;;;;;;;0.77;100.00;101172.63;4953142;28;20105;-79
2022/04/11 04:52:51;;;;;;;5.40;2.30;;;;;;;0.82;100.00;101180.53;4984953;28;20031;-78
2022/04/11 04:55:18;;;;;;;4.10;2.17;;;;;;;0.82;100.00;101173.59;4974459;28;20035;-80
2022/04/11 04:57:45;;;;;;;4.07;2.30;;;;;;;0.86;100.00;101171.97;4942192;28;20046;-79
2022/04/11 05:00:12;;;;;;;4.03;3.60;;;;;;;0.87;100.00;101180.66;4976040;28;20129;-79
2022/04/11 05:02:39;;;;;;;12.47;6.10;;;;;;;0.87;100.00;101184.16;4930642;28;20046;-78
2022/04/11 05:05:10;;;;;;;9.70;5.57;;;;;;;0.87;100.00;101184.16;4928509;28;21543;-78
2022/04/11 05:07:37;;;;;;;8.67;4.00;;;;;;;0.90;100.00;101191.13;4957417;28;20050;-79
2022/04/11 05:10:08;;;;;;;12.50;6.33;;;;;;;0.89;100.00;101195.47;4956369;28;20073;-79
2022/04/11 05:12:43;;;;;;;5.73;3.40;;;;;;;0.96;100.00;101193.91;4942932;28;20035;-78
2022/04/11 05:15:11;;;;;;;7.23;2.70;;;;;;;0.96;100.00;101189.59;4973773;28;20503;-79
2022/04/11 05:17:37;;;;;;;6.43;3.13;;;;;;;0.97;100.00;101188.75;4954912;28;20046;-79
2022/04/11 05:20:06;;;;;;;6.33;2.93;;;;;;;0.99;100.00;101186.19;4967137;28;20039;-78
2022/04/11 05:22:33;;;;;;;5.73;2.23;;;;;;;0.99;100.00;101194.88;4938348;28;20496;-78
2022/04/11 05:24:59;;;;;;;4.70;2.20;;;;;;;1.00;100.00;101193.16;4968734;28;20058;-79
2022/04/11 05:27:26;;;;;;;7.17;2.90;;;;;;;0.99;100.00;101202.66;4972431;28;20071;-79
2022/04/11 05:29:53;;;;;;;4.93;2.50;;;;;;;1.07;100.00;101205.47;4966984;28;20042;-79
2022/04/11 05:32:19;;;;;;;5.40;2.93;;;;;;;1.09;100.00;101212.50;4958243;28;20600;-79
2022/04/11 05:34:46;;;;;;;9.07;2.73;;;;;;;1.20;100.00;101202.38;4975908;28;20049;-79
2022/04/11 05:37:13;;;;;;;6.80;3.30;;;;;;;1.27;100.00;101201.69;4956190;28;20058;-79
2022/04/11 05:39:39;;;;;;;4.73;2.70;;;;;;;1.32;100.00;101199.19;4941331;28;20049;-79
2022/04/11 05:42:07;;;;;;;7.60;3.00;;;;;;;1.35;100.00;101201.91;4954336;28;20068;-78
2022/04/11 05:44:34;;;;;;;6.17;3.20;;;;;;;1.37;100.00;101200.22;4951142;28;20085;-79
2022/04/11 05:47:00;;;;;;;6.67;3.40;;;;;;;1.41;100.00;101205.50;4971095;28;20516;-80
2022/04/11 05:49:27;;;;;;;6.73;3.60;;;;;;;1.50;100.00;101197.06;4968987;28;20467;-80
2022/04/11 05:51:54;;;;;;;6.53;3.33;;;;;;;1.52;100.00;101207.53;4987128;28;20030;-79
2022/04/11 05:54:21;;;;;;;7.77;3.40;;;;;;;1.63;100.00;101201.72;4961265;28;20042;-79
2022/04/11 05:56:47;;;;;;;6.13;3.40;;;;;;;1.69;100.00;101212.31;4941241;28;20038;-79
2022/04/11 05:59:14;;;;;;;9.67;3.97;;;;;;;1.76;100.00;101212.44;4960402;28;20051;-78
2022/04/11 06:01:41;;;;;;;8.40;3.20;;;;;;;1.85;100.00;101208.34;4943827;28;20061;-80
2022/04/11 06:04:08;;;;;;;6.00;3.10;;;;;;;1.88;100.00;101225.78;4948791;28;20049;-79
2022/04/11 06:06:35;;;;;;;7.10;3.30;;;;;;;1.92;100.00;101220.66;4954061;28;20105;-80
2022/04/11 06:09:04;;;;;;;7.27;2.90;;;;;;;2.09;100.00;101221.03;4968923;28;20054;-80
2022/04/11 06:11:31;;;;;;;6.30;3.10;;;;;;;2.12;100.00;101226.34;4991732;28;20046;-79
2022/04/11 06:13:57;;;;;;;7.00;2.50;;;;;;;2.21;100.00;101230.88;4932460;28;20069;-80
2022/04/11 06:16:24;;;;;;;7.83;2.83;;;;;;;2.31;100.00;101237.19;4960036;28;20039;-79
2022/04/11 06:18:51;;;;;;;6.07;2.80;;;;;;;2.35;100.00;101228.56;4955713;28;20163;-80
2022/04/11 06:21:18;;;;;;;5.93;2.97;;;;;;;2.53;100.00;101242.03;4971354;28;20050;-79
2022/04/11 06:23:44;;;;;;;4.70;3.37;;;;;;;2.73;100.00;101227.66;4986293;28;20512;-80
2022/04/11 06:26:11;;;;;;;5.07;2.83;;;;;;;2.86;100.00;101241.84;4979264;28;20038;-79
2022/04/11 06:28:41;;;;;;;4.77;2.90;;;;;;;3.13;100.00;101232.78;4948213;28;20482;-80
2022/04/11 06:31:09;;;;;;;7.90;2.83;;;;;;;3.99;100.00;101232.53;4940278;28;20071;-80
2022/04/11 06:33:37;;;;;;;5.47;3.00;;;;;;;5.66;91.36;101231.06;4953734;28;20042;-79
2022/04/11 06:36:04;;;;;;;5.23;2.53;;;;;;;6.98;84.05;101231.03;4935889;28;20050;-80
2022/04/11 06:38:30;;;;;;;4.13;2.20;;;;;;;8.09;75.24;101226.75;4947176;28;20058;-80
2022/04/11 06:40:57;;;;;;;6.45;2.13;;;;;;;8.98;72.21;101228.25;4945495;28;20039;-80
2022/04/11 06:43:24;;;;;;;4.32;2.30;;;;;;;10.18;64.69;101222.13;4969974;28;20451;-80
2022/04/11 06:45:50;;;;;;;6.25;2.35;;;;;;;10.67;61.58;101225.13;4961353;28;20046;-81
2022/04/11 06:48:17;;;;;;;3.85;1.90;;;;;;;10.91;62.35;101222.16;4947425;28;20050;-81
2022/04/11 06:50:44;;;;;;;5.40;2.45;;;;;;;11.32;61.01;101217.22;4943553;28;20046;-78
2022/04/11 06:53:13;;;;;;;5.60;2.50;;;;;;;11.39;57.85;101216.22;4966904;28;20036;-79
2022/04/11 06:55:40;;;;;;;4.38;2.03;;;;;;;11.26;58.44;101219.03;4947274;28;20492;-80
2022/04/11 06:58:07;;;;;;;4.40;2.28;;;;;;;11.17;57.04;101221.81;4955468;28;20042;-80
2022/04/11 07:00:33;;;;;;;4.00;1.73;;;;;;;11.33;57.36;101218.97;4981178;28;20065;-81
2022/04/11 07:03:00;;;;;;;4.60;1.77;;;;;;;10.93;57.89;101228.34;4961492;28;20555;-79
2022/04/11 07:05:27;;;;;;;5.13;2.33;;;;;;;11.17;59.00;101234.16;4940260;28;20043;-80
2022/04/11 07:07:53;;;;;;;5.65;2.22;;;;;;;9.40;61.37;101233.28;4971272;28;20125;-80
2022/04/11 07:10:20;;;;;;;5.25;2.40;;;;;;;10.25;62.72;101237.03;4961978;28;20070;-79
2022/04/11 07:12:47;;;;;;;3.45;1.85;;;;;;;8.72;62.72;101233.63;4937759;28;20062;-79
2022/04/11 07:15:16;;;;;;;4.82;2.30;;;;;;;9.64;66.79;101242.81;4954705;28;20051;-80
2022/04/11 07:17:44;;;;;;;4.13;2.05;;;;;;;8.94;63.17;101242.34;4941746;28;20050;-79
2022/04/11 07:20:11;;;;;;;4.68;2.30;;;;;;;9.34;66.71;101236.00;4951520;28;20049;-80
2022/04/11 07:22:37;;;;;;;4.30;1.80;;;;;;;9.45;63.67;101242.94;4947291;28;20519;-80
2022/04/11 07:25:04;;;;;;;3.88;2.35;;;;;;;9.69;65.91;101247.16;4925194;28;20452;-81
2022/04/11 07:27:31;;;;;;;4.20;2.03;;;;;;;9.92;67.46;101241.72;4984121;28;20053;-80
2022/04/11 07:29:57;;;;;;;3.30;1.75;;;;;;;10.19;67.88;101245.00;4961787;28;20039;-80
2022/04/11 07:32:24;;;;;;;4.38;2.53;;;;;;;9.55;63.04;101241.09;4952431;28;20045;-81
2022/04/11 07:34:51;;;;;;;3.70;2.00;;;;;;;8.67;65.54;101248.59;4953017;28;20039;-79
2022/04/11 07:37:18;;;;;;;5.88;2.50;;;;;;;8.74;68.37;101239.81;4987509;28;20515;-80
2022/04/11 07:39:45;;;;;;;6.80;2.58;;;;;;;8.96;69.56;101248.47;4942989;28;20050;-80
2022/04/11 07:42:11;;;;;;;10.15;2.85;;;;;;;8.61;69.16;101245.97;4975785;28;20039;-80
2022/04/11 07:44:38;;;;;;;4.00;2.40;;;;;;;8.41;69.86;101242.53;4958373;28;20042;-81
2022/04/11 07:47:05;;;;;;;3.00;2.38;;;;;;;8.17;67.98;101241.66;4955673;28;20271;-81
2022/04/11 07:49:32;;;;;;;3.97;2.60;;;;;;;8.43;72.15;101246.03;4987442;28;20407;-80
2022/04/11 07:51:58;;;;;;;2.83;2.13;;;;;;;8.61;73.38;101245.09;4977076;28;20102;-81
2022/04/11 07:54:25;;;;;;;3.50;2.35;;;;;;;8.74;74.65;101252.97;4976471;28;20039;-80
2022/04/11 07:56:51;;;;;;;5.18;2.20;;;;;;;8.70;72.78;101242.44;4979157;28;20448;-80
2022/04/11 07:59:18;;;;;;;7.93;2.63;;;;;;;8.72;72.94;101244.16;4980472;28;20045;-80
2022/04/11 08:01:45;;;;;;;5.20;2.30;;;;;;;8.70;74.21;101245.94;4958548;28;20047;-80
2022/04/11 08:04:12;;;;;;;4.82;2.40;;;;;;;8.60;72.50;101244.22;4975207;28;20508;-81
2022/04/11 08:06:38;;;;;;;4.82;2.10;;;;;;;8.33;71.90;101250.41;4982946;28;20046;-80
2022/04/11 08:09:05;;;;;;;6.63;2.65;;;;;;;8.00;73.78;101245.19;4954036;28;20142;-79
2022/04/11 08:11:32;;;;;;;4.78;2.28;;;;;;;7.62;74.23;101246.91;4964742;28;20043;-81
2022/04/11 08:13:59;;;;;;;7.60;2.30;;;;;;;7.58;72.60;101247.81;4961463;28;20039;-80
2022/04/11 08:16:26;;;;;;;3.30;1.90;;;;;;;7.78;77.42;101245.19;4964296;28;20035;-82
2022/04/11 08:18:52;;;;;;;6.80;2.77;;;;;;;7.94;78.69;101232.91;4980036;28;20042;-80
2022/04/11 08:21:19;;;;;;;5.93;2.53;;;;;;;8.26;78.65;101243.41;4957914;28;20196;-80
2022/04/11 08:23:46;;;;;;;4.03;2.10;;;;;;;8.35;73.15;101250.44;4971966;28;20621;-80
2022/04/11 08:26:12;;;;;;;4.13;2.38;;;;;;;8.38;71.85;101243.41;4988889;28;20047;-80
2022/04/11 08:28:39;;;;;;;5.20;2.00;;;;;;;8.61;74.40;101245.09;4982613;28;20046;-80
2022/04/11 08:31:06;;;;;;;5.57;2.30;;;;;;;8.80;72.13;101244.16;4998951;28;20053;-77
2022/04/11 08:33:33;;;;;;;9.02;2.95;;;;;;;8.96;72.83;101242.31;4970839;28;20095;-78
2022/04/11 08:36:00;;;;;;;5.95;2.17;;;;;;;8.99;71.32;101242.31;4983394;28;20037;-78
2022/04/11 08:38:27;;;;;;;13.50;2.45;;;;;;;9.03;69.80;101241.41;4980537;28;20047;-89
2022/04/11 08:40:54;;;;;;;5.78;1.90;;;;;;;8.98;68.49;101241.44;4924870;28;20396;-89
2022/04/11 08:43:23;;;;;;;7.65;2.10;;;;;;;9.08;68.87;101244.94;4932796;28;20094;-78
2022/04/11 08:45:54;;;;;;;3.58;2.13;;;;;;;9.01;68.88;101249.34;4963800;28;20053;-78
2022/04/11 08:48:22;;;;;;;4.30;2.15;;;;;;;9.17;66.79;101252.78;4968340;28;20042;-80
2022/04/11 08:50:49;;;;;;;5.90;1.98;;;;;;;9.21;64.46;101241.31;4978201;28;20058;-77
2022/04/11 08:53:22;;;;;;;5.47;2.17;;;;;;;8.94;67.88;101231.81;4997697;28;20049;-78
2022/04/11 08:55:49;;;;;;;4.57;2.20;;;;;;;9.09;65.33;101238.75;4981817;28;20038;-76
2022/04/11 08:58:17;;;;;;;7.10;2.53;;;;;;;9.12;66.51;101249.28;4969695;28;20778;-76
2022/04/11 09:00:45;;;;;;;7.18;2.72;;;;;;;8.89;65.72;101249.38;4968901;28;20509;-78
2022/04/11 09:03:11;;;;;;;2.85;1.70;;;;;;;8.91;62.82;101244.09;4964350;28;20137;-75
2022/04/11 09:05:39;;;;;;;4.32;2.30;;;;;;;8.86;63.79;101241.50;4969770;28;20038;-77
2022/04/11 09:08:06;;;;;;;6.40;2.35;;;;;;;8.88;62.92;101247.63;4962734;28;20478;-76
2022/04/11 09:10:37;;;;;;;8.52;2.42;;;;;;;8.93;63.68;101239.72;4922850;28;20129;-75
2022/04/11 09:13:05;;;;;;;12.15;2.30;;;;;;;9.48;71.82;101239.41;4963405;28;20432;-74
2022/04/11 09:15:45;;;;;;;5.10;2.30;;;;;;;10.12;64.14;101233.59;4945988;28;20057;-78
2022/04/11 09:18:11;;;;;;;8.15;2.53;;;;;;;10.01;61.45;101239.00;4968018;28;20045;-78
2022/04/11 09:20:42;;;;;;;5.50;2.03;;;;;;;9.94;63.04;101241.69;4921605;28;20424;-78
2022/04/11 09:23:17;;;;;;;4.30;2.00;;;;;;;9.79;63.02;101243.56;4953994;28;20113;-78
2022/04/11 09:25:44;;;;;;;5.38;2.45;;;;;;;9.52;63.94;101242.00;4938107;28;20070;-77
2022/04/11 09:28:12;;;;;;;4.78;2.22;;;;;;;9.74;62.61;101239.19;4968629;28;20046;-78
2022/04/11 09:30:40;;;;;;;4.88;2.50;;;;;;;10.08;63.21;101235.38;4948719;28;20047;-78
2022/04/11 09:33:10;;;;;;;6.80;2.15;;;;;;;10.23;58.32;101236.16;4964839;28;20127;-77
2022/04/11 09:35:47;;;;;;;4.95;2.55;;;;;;;10.13;57.53;101225.66;4961796;28;20053;-78
2022/04/11 09:38:16;;;;;;;5.18;2.17;;;;;;;10.09;60.23;101231.00;4966938;28;20093;-77
2022/04/11 09:40:53;;;;;;;2.83;1.75;;;;;;;10.05;59.78;101235.41;4944658;28;20569;-77
2022/04/11 09:43:26;;;;;;;3.70;2.15;;;;;;;9.67;57.68;101238.41;4922949;28;20862;-77
2022/04/11 09:45:52;;;;;;;3.65;2.38;;;;;;;9.81;59.23;101230.34;4974471;28;20046;-77
2022/04/11 09:48:32;;;;;;;5.35;2.13;;;;;;;9.78;58.48;101228.63;4973301;28;20078;-78
2022/04/11 09:50:59;;;;;;;3.63;2.45;;;;;;;9.68;56.82;101237.50;4974280;28;20130;-77
2022/04/11 09:53:32;;;;;;;2.47;1.77;;;;;;;9.94;56.92;101241.69;4952269;28;20054;-77
2022/04/11 09:56:05;;;;;;;5.68;1.90;;;;;;;9.83;58.28;101228.56;4946819;28;20509;-77
2022/04/11 09:58:34;;;;;;;4.95;1.98;;;;;;;9.96;56.47;101227.59;4949532;28;20043;-77
2022/04/11 10:01:02;;;;;;;4.10;2.05;;;;;;;10.21;55.65;101224.72;4970968;28;20042;-77
2022/04/11 10:03:29;;;;;;;3.33;1.95;;;;;;;10.01;52.45;101233.72;4979909;28;20062;-77
2022/04/11 10:06:00;;;;;;;3.53;1.65;;;;;;;9.92;55.83;101232.91;4945776;28;20043;-78
2022/04/11 10:08:27;;;;;;;2.53;1.40;;;;;;;9.66;56.17;101236.63;4929104;28;20046;-77
2022/04/11 10:10:55;;;;;;;5.05;1.83;;;;;;;9.44;55.67;101228.00;4941434;28;20034;-77
2022/04/11 10:13:22;;;;;;;2.67;1.83;;;;;;;9.55;59.15;101226.16;4966843;28;20612;-77
2022/04/11 10:15:50;;;;;;;3.67;1.65;;;;;;;9.59;55.65;101221.75;4957693;28;20039;-77
2022/04/11 10:18:25;;;;;;;3.58;1.80;;;;;;;9.63;56.21;101227.88;4950612;28;20085;-77
2022/04/11 10:20:57;;;;;;;2.55;1.77;;;;;;;9.74;54.58;101220.72;4976182;28;20480;-78
2022/04/11 10:23:48;;;;;;;3.15;1.85;;;;;;;9.84;56.04;101227.72;4951223;28;20412;-78
2022/04/11 10:26:17;;;;;;;3.92;1.80;;;;;;;9.86;55.09;101228.56;4966571;28;20106;-77
2022/04/11 10:28:47;;;;;;;2.97;1.40;;;;;;;9.91;53.28;101228.50;4954303;28;20056;-77
2022/04/11 10:31:15;;;;;;;3.35;1.50;;;;;;;9.64;52.61;101219.06;4934424;28;20504;-78
2022/04/11 10:33:44;;;;;;;2.85;1.70;;;;;;;9.40;51.91;101220.97;4955350;28;20453;-79
2022/04/11 10:36:29;;;;;;;6.38;1.67;;;;;;;9.62;54.31;101228.75;4975322;28;20059;-79
2022/04/11 10:39:14;;;;;;;4.28;1.55;;;;;;;9.99;51.74;101224.03;4976360;28;20053;-78
2022/04/11 10:41:56;;;;;;;3.15;1.42;;;;;;;10.38;51.26;101221.03;4951082;28;21617;-78
2022/04/11 10:44:43;;;;;;;1.73;1.60;;;;;;;10.12;51.00;101216.00;4969602;28;20120;-78
2022/04/11 10:47:10;;;;;;;5.47;2.28;;;;;;;10.11;49.61;101218.66;4984910;28;20519;-78
2022/04/11 10:49:49;;;;;;;4.53;1.73;;;;;;;10.12;51.25;101210.72;4943827;28;20523;-78
2022/04/11 10:52:33;;;;;;;3.00;1.50;;;;;;;10.09;50.69;101205.47;4971157;28;20042;-78
2022/04/11 10:55:10;;;;;;;;;;;;;;;9.94;49.08;101208.25;4960714;28;20050;-78
2022/04/11 10:57:41;;;;;;;2.83;1.40;;;;;;;9.99;48.71;101203.78;4947379;28;19989;-78
2022/04/11 11:00:10;;;;;;;2.10;1.23;;;;;;;10.05;50.92;101203.75;4934258;28;20149;-78
2022/04/11 11:02:49;;;;;;;3.17;1.40;;;;;;;10.09;51.27;101200.19;4959413;28;20043;-77
2022/04/11 11:05:25;;;;;;;4.32;1.73;;;;;;;10.12;52.50;101201.94;4961118;28;20413;-77
2022/04/11 11:08:09;;;;;;;3.78;1.52;;;;;;;10.53;51.74;101198.00;4965131;28;20039;-78
2022/04/11 11:10:42;;;;;;;3.70;1.97;;;;;;;10.86;51.40;101186.13;4967815;28;20042;-77
2022/04/11 11:13:39;;;;;;;5.38;1.60;;;;;;;11.04;49.15;101185.00;4938471;28;20039;-78
2022/04/11 11:16:06;;;;;;;3.90;1.73;;;;;;;10.85;49.19;101194.97;4940583;28;20058;-78
2022/04/11 11:18:48;;;;;;;3.35;1.50;;;;;;;11.12;50.54;101189.28;4944351;28;20400;-77
2022/04/11 11:21:44;;;;;;;1.92;1.25;;;;;;;11.55;46.21;101176.28;4974254;28;20101;-78
2022/04/11 11:24:12;;;;;;;2.40;1.25;;;;;;;11.44;42.70;101185.31;4980045;28;20145;-77
2022/04/11 11:26:40;;;;;;;3.17;1.25;;;;;;;11.13;44.75;101184.88;4971104;28;20452;-77
2022/04/11 11:29:27;;;;;;;2.33;1.10;;;;;;;11.19;45.82;101188.31;4961521;28;20129;-77
2022/04/11 11:32:06;;;;;;;3.25;1.90;;;;;;;10.86;44.14;101183.50;4954713;28;20508;-77
2022/04/11 11:34:34;;;;;;;1.80;1.60;;;;;;;10.80;46.23;101178.28;4953827;28;20040;-77